createdAt,value
2022-10-17T00:00:43.438Z,5.57
2022-10-17T00:03:10.105Z,5.60
2022-10-17T00:05:43.803Z,6.00
2022-10-17T00:08:11.566Z,6.27
2022-10-17T00:10:38.425Z,6.17
2022-10-17T00:13:05.171Z,5.47
2022-10-17T00:15:32.108Z,5.50
2022-10-17T00:17:58.642Z,6.03
2022-10-17T00:20:25.458Z,5.10
2022-10-17T00:22:51.965Z,5.83
2022-10-17T00:25:18.375Z,5.50
2022-10-17T00:27:45.099Z,5.77
2022-10-17T00:30:14.958Z,5.07
2022-10-17T00:32:41.761Z,5.40
2022-10-17T00:35:08.842Z,5.17
2022-10-17T00:37:35.658Z,5.10
2022-10-17T00:40:02.153Z,5.97
2022-10-17T00:42:28.960Z,4.70
2022-10-17T00:45:07.740Z,5.13
2022-10-17T00:47:35.969Z,4.77
2022-10-17T00:50:03.354Z,5.37
2022-10-17T00:52:31.002Z,4.90
2022-10-17T00:55:03.199Z,5.40
2022-10-17T00:57:31.604Z,5.17
2022-10-17T00:59:59.413Z,4.70
2022-10-17T01:02:26.333Z,5.30
2022-10-17T01:04:55.101Z,5.37
2022-10-17T01:07:21.732Z,5.20
2022-10-17T01:09:49.850Z,5.37
2022-10-17T01:12:22.366Z,5.07
2022-10-17T01:15:07.773Z,4.60
2022-10-17T01:17:37.214Z,4.80
2022-10-17T01:20:18.827Z,4.70
2022-10-17T01:23:03.895Z,4.67
2022-10-17T01:25:30.461Z,4.67
2022-10-17T01:28:16.020Z,4.70
2022-10-17T01:30:45.602Z,5.20
2022-10-17T01:33:14.293Z,4.97
2022-10-17T01:35:55.490Z,4.80
2022-10-17T01:38:25.411Z,4.40
2022-10-17T01:41:02.133Z,4.70
2022-10-17T01:43:31.591Z,4.40
2022-10-17T01:46:00.736Z,5.10
2022-10-17T01:48:30.277Z,4.47
2022-10-17T01:51:10.927Z,4.43
2022-10-17T01:53:41.604Z,4.97
2022-10-17T01:56:09.322Z,4.73
2022-10-17T01:58:49.429Z,4.87
2022-10-17T02:01:18.664Z,4.83
2022-10-17T02:03:46.727Z,4.90
2022-10-17T02:06:13.217Z,5.00
2022-10-17T02:08:46.791Z,6.00
2022-10-17T02:11:18.325Z,6.20
2022-10-17T02:14:03.860Z,6.37
2022-10-17T02:16:42.698Z,5.80
2022-10-17T02:19:32.887Z,5.53
2022-10-17T02:22:16.452Z,5.50
2022-10-17T02:24:57.152Z,4.97
2022-10-17T02:27:36.278Z,4.93
2022-10-17T02:30:06.269Z,4.87
2022-10-17T02:32:32.731Z,5.23
2022-10-17T02:35:01.868Z,4.60
2022-10-17T02:37:30.193Z,5.23
2022-10-17T02:39:57.936Z,5.03
2022-10-17T02:42:25.302Z,4.70
2022-10-17T02:44:52.306Z,4.57
2022-10-17T02:47:42.232Z,4.77
2022-10-17T02:50:08.851Z,4.73
2022-10-17T02:52:45.124Z,4.70
2022-10-17T02:55:13.835Z,4.70
2022-10-17T02:57:54.712Z,4.50
2022-10-17T03:00:23.713Z,4.47
2022-10-17T03:02:51.214Z,4.77
2022-10-17T03:05:19.626Z,5.40
2022-10-17T03:07:46.187Z,4.70
2022-10-17T03:10:12.927Z,4.67
2022-10-17T03:12:39.462Z,5.27
2022-10-17T03:15:07.381Z,4.87
2022-10-17T03:17:34.218Z,5.17
2022-10-17T03:20:00.856Z,5.57
2022-10-17T03:22:29.532Z,5.20
2022-10-17T03:24:58.524Z,5.70
2022-10-17T03:27:25.319Z,6.10
2022-10-17T03:29:52.000Z,6.53
2022-10-17T03:32:19.797Z,6.30
2022-10-17T03:34:46.688Z,6.50
2022-10-17T03:37:13.422Z,6.63
2022-10-17T03:39:41.119Z,6.80
2022-10-17T03:42:07.831Z,6.87
2022-10-17T03:44:34.474Z,7.50
2022-10-17T03:47:00.955Z,7.37
2022-10-17T03:49:27.533Z,9.30
2022-10-17T03:51:54.169Z,9.10
2022-10-17T03:54:20.668Z,9.50
2022-10-17T03:56:47.202Z,10.40
2022-10-17T03:59:17.290Z,10.20
2022-10-17T04:01:51.007Z,10.97
2022-10-17T04:04:18.618Z,11.13
2022-10-17T04:06:45.071Z,10.40
2022-10-17T04:09:11.540Z,10.57
2022-10-17T04:11:58.479Z,9.90
2022-10-17T04:14:25.052Z,10.87
2022-10-17T04:16:51.569Z,11.70
2022-10-17T04:19:20.560Z,12.60
2022-10-17T04:21:47.437Z,12.50
2022-10-17T04:24:14.864Z,12.53
2022-10-17T04:26:44.208Z,12.60
2022-10-17T04:29:11.135Z,13.33
2022-10-17T04:31:38.849Z,12.90
2022-10-17T04:34:14.697Z,13.00
2022-10-17T04:36:41.236Z,12.77
2022-10-17T04:39:08.437Z,13.80
2022-10-17T04:41:35.817Z,14.00
2022-10-17T04:44:02.580Z,14.10
2022-10-17T04:46:33.466Z,15.03
2022-10-17T04:48:59.963Z,15.53
2022-10-17T04:51:27.121Z,14.03
2022-10-17T04:54:17.671Z,16.37
2022-10-17T04:56:48.609Z,16.47
2022-10-17T04:59:15.183Z,16.90
2022-10-17T05:01:43.830Z,17.53
2022-10-17T05:04:10.451Z,18.70
2022-10-17T05:06:37.754Z,20.53
2022-10-17T05:09:35.747Z,19.07
2022-10-17T05:12:04.284Z,20.93
2022-10-17T05:14:33.357Z,20.83
2022-10-17T05:17:00.453Z,20.57
2022-10-17T05:19:28.280Z,20.37
2022-10-17T05:21:54.849Z,21.03
2022-10-17T05:24:21.306Z,21.43
2022-10-17T05:26:49.999Z,20.90
2022-10-17T05:29:16.461Z,21.37
2022-10-17T05:31:47.889Z,21.73
2022-10-17T05:34:14.303Z,20.30
2022-10-17T05:36:41.852Z,21.40
2022-10-17T05:39:09.127Z,21.10
2022-10-17T05:41:37.024Z,21.77
2022-10-17T05:44:05.654Z,21.70
2022-10-17T05:46:41.276Z,21.37
2022-10-17T05:49:14.984Z,22.30
2022-10-17T05:51:56.367Z,22.97
2022-10-17T05:54:22.880Z,23.33
2022-10-17T05:56:53.380Z,23.43
2022-10-17T05:59:21.675Z,24.13
2022-10-17T06:02:00.014Z,25.77
2022-10-17T06:04:27.871Z,25.97
2022-10-17T06:06:56.274Z,27.40
2022-10-17T06:09:23.800Z,27.60
2022-10-17T06:11:52.918Z,27.47
2022-10-17T06:14:19.996Z,26.50
2022-10-17T06:16:48.949Z,26.87
2022-10-17T06:19:15.873Z,28.13
2022-10-17T06:21:42.588Z,27.27
2022-10-17T06:24:14.520Z,25.70
2022-10-17T06:26:42.284Z,27.23
2022-10-17T06:29:10.641Z,25.97
2022-10-17T06:31:43.206Z,28.10
2022-10-17T06:34:09.942Z,29.13
2022-10-17T06:36:38.189Z,28.57
2022-10-17T06:39:05.676Z,28.97
2022-10-17T06:41:37.531Z,28.83
2022-10-17T06:44:11.099Z,27.17
2022-10-17T06:46:56.336Z,26.73
2022-10-17T06:49:22.908Z,25.93
2022-10-17T06:51:58.981Z,26.47
2022-10-17T06:54:34.067Z,26.40
2022-10-17T06:57:20.772Z,26.43
2022-10-17T07:00:06.464Z,26.93
2022-10-17T07:02:40.172Z,26.27
2022-10-17T07:05:06.697Z,28.27
2022-10-17T07:07:34.322Z,26.27
2022-10-17T07:10:00.935Z,26.37
2022-10-17T07:12:27.431Z,27.63
2022-10-17T07:14:54.602Z,25.13
2022-10-17T07:17:21.033Z,26.17
2022-10-17T07:19:47.543Z,25.57
2022-10-17T07:22:14.268Z,24.20
2022-10-17T07:24:44.234Z,24.23
2022-10-17T07:27:33.662Z,24.20
2022-10-17T07:30:00.072Z,24.67
2022-10-17T07:32:38.410Z,25.13
2022-10-17T07:35:05.976Z,24.27
2022-10-17T07:37:33.613Z,24.53
2022-10-17T07:40:00.314Z,24.37
2022-10-17T07:42:28.344Z,23.60
2022-10-17T07:44:55.048Z,25.10
2022-10-17T07:47:22.661Z,23.13
2022-10-17T07:49:50.042Z,24.63
2022-10-17T07:52:17.062Z,23.00
2022-10-17T07:54:43.800Z,22.67
2022-10-17T07:57:10.323Z,22.27
2022-10-17T07:59:37.535Z,21.20
2022-10-17T08:02:04.056Z,21.20
2022-10-17T08:04:30.632Z,20.43
2022-10-17T08:07:11.573Z,19.80
2022-10-17T08:09:44.266Z,21.37
2022-10-17T08:12:10.867Z,19.47
2022-10-17T08:14:37.286Z,19.60
2022-10-17T08:17:03.717Z,19.13
2022-10-17T08:19:30.179Z,18.43
2022-10-17T08:21:58.382Z,18.80
2022-10-17T08:24:25.360Z,18.20
2022-10-17T08:26:53.409Z,18.90
2022-10-17T08:29:20.021Z,18.53
2022-10-17T08:31:48.304Z,18.33
2022-10-17T08:34:16.353Z,17.17
2022-10-17T08:36:42.940Z,17.93
2022-10-17T08:39:09.473Z,18.70
2022-10-17T08:41:47.863Z,17.47
2022-10-17T08:44:33.104Z,18.03
2022-10-17T08:47:01.649Z,16.93
2022-10-17T08:49:43.454Z,18.03
2022-10-17T08:52:32.947Z,18.17
2022-10-17T08:54:59.749Z,17.13
2022-10-17T08:57:26.463Z,16.87
2022-10-17T08:59:54.122Z,16.20
2022-10-17T09:02:35.240Z,18.00
2022-10-17T09:05:23.914Z,17.27
2022-10-17T09:08:10.647Z,15.80
2022-10-17T09:10:45.976Z,15.70
2022-10-17T09:13:25.379Z,15.97
2022-10-17T09:16:01.205Z,15.30
2022-10-17T09:18:29.682Z,15.27
2022-10-17T09:21:16.352Z,16.23
2022-10-17T09:23:53.317Z,14.83
2022-10-17T09:26:26.260Z,15.93
2022-10-17T09:28:54.162Z,14.63
2022-10-17T09:31:22.888Z,15.83
2022-10-17T09:33:54.366Z,15.43
2022-10-17T09:36:34.560Z,16.87
2022-10-17T09:39:02.486Z,15.77
2022-10-17T09:41:50.012Z,16.53
2022-10-17T09:44:19.395Z,15.97
2022-10-17T09:46:48.872Z,16.33
2022-10-17T09:49:19.707Z,16.77
2022-10-17T09:51:46.244Z,16.03
2022-10-17T09:54:20.626Z,16.80
2022-10-17T09:56:57.788Z,17.13
2022-10-17T09:59:56.754Z,17.17
2022-10-17T10:02:24.251Z,16.80
2022-10-17T10:05:09.794Z,15.93
2022-10-17T10:07:37.809Z,16.53
2022-10-17T10:10:05.351Z,15.50
2022-10-17T10:12:36.259Z,15.73
2022-10-17T10:15:05.154Z,15.10
2022-10-17T10:17:37.340Z,14.70
2022-10-17T10:20:23.753Z,14.10
2022-10-17T10:23:08.816Z,14.80
2022-10-17T10:25:35.598Z,14.13
2022-10-17T10:28:02.500Z,13.23
2022-10-17T10:30:29.738Z,14.37
2022-10-17T10:32:57.121Z,14.50
2022-10-17T10:35:27.978Z,13.97
2022-10-17T10:37:55.708Z,14.03
2022-10-17T10:40:22.169Z,13.53
2022-10-17T10:42:50.368Z,13.20
2022-10-17T10:45:29.202Z,12.80
2022-10-17T10:48:13.114Z,12.83
2022-10-17T10:50:45.401Z,12.57
2022-10-17T10:53:12.029Z,12.33
2022-10-17T10:55:50.695Z,12.13
2022-10-17T10:58:31.801Z,11.97
2022-10-17T11:01:00.922Z,12.77
2022-10-17T11:03:33.584Z,12.13
2022-10-17T11:06:06.175Z,12.30
2022-10-17T11:08:32.815Z,11.70
2022-10-17T11:11:08.216Z,11.97
2022-10-17T11:13:39.637Z,12.50
2022-10-17T11:16:06.469Z,11.93
2022-10-17T11:18:42.163Z,11.83
2022-10-17T11:21:28.873Z,12.40
2022-10-17T11:24:13.780Z,12.20
2022-10-17T11:26:45.141Z,11.67
2022-10-17T11:29:12.512Z,12.43
2022-10-17T11:31:43.191Z,12.03
2022-10-17T11:34:19.637Z,11.67
2022-10-17T11:36:46.997Z,11.47
2022-10-17T11:39:32.570Z,11.33
2022-10-17T11:42:14.335Z,10.70
2022-10-17T11:44:41.721Z,10.70
2022-10-17T11:47:14.245Z,9.90
2022-10-17T11:49:43.312Z,9.90
2022-10-17T11:52:44.427Z,10.37
2022-10-17T11:55:16.569Z,10.33
2022-10-17T11:57:48.902Z,10.13
2022-10-17T12:00:30.820Z,9.83
2022-10-17T12:02:57.415Z,9.80
2022-10-17T12:05:42.365Z,10.37
2022-10-17T12:08:25.196Z,10.00
2022-10-17T12:10:56.317Z,9.77
2022-10-17T12:13:43.030Z,9.10
2022-10-17T12:16:18.780Z,9.27
2022-10-17T12:18:45.915Z,9.63
2022-10-17T12:21:12.425Z,9.73
2022-10-17T12:23:40.010Z,9.67
2022-10-17T12:26:10.476Z,10.23
2022-10-17T12:28:40.016Z,8.70
2022-10-17T12:31:06.498Z,9.23
2022-10-17T12:33:34.631Z,9.60
2022-10-17T12:36:22.332Z,9.70
2022-10-17T12:38:49.874Z,8.50
2022-10-17T12:41:17.182Z,8.70
2022-10-17T12:43:45.004Z,9.83
2022-10-17T12:46:11.795Z,9.63
2022-10-17T12:48:38.343Z,9.70
2022-10-17T12:51:35.826Z,9.80
2022-10-17T12:54:12.592Z,9.87
2022-10-17T12:56:46.698Z,9.37
2022-10-17T12:59:24.205Z,9.17
2022-10-17T13:01:53.108Z,9.77
2022-10-17T13:04:20.029Z,9.97
2022-10-17T13:06:48.491Z,9.40
2022-10-17T13:09:26.012Z,9.03
2022-10-17T13:11:53.370Z,9.50
2022-10-17T13:14:21.047Z,10.23
2022-10-17T13:16:58.479Z,9.57
2022-10-17T13:19:39.332Z,9.57
2022-10-17T13:22:16.571Z,9.67
2022-10-17T13:24:43.238Z,9.60
2022-10-17T13:27:29.762Z,9.17
2022-10-17T13:29:57.655Z,9.90
2022-10-17T13:32:25.381Z,9.60
2022-10-17T13:35:08.677Z,9.50
2022-10-17T13:37:35.592Z,10.17
2022-10-17T13:40:11.317Z,9.40
2022-10-17T13:42:44.330Z,9.60
2022-10-17T13:45:31.257Z,9.00
2022-10-17T13:47:59.979Z,10.17
2022-10-17T13:50:44.581Z,10.40
2022-10-17T13:53:16.751Z,9.90
2022-10-17T13:56:15.799Z,10.03
2022-10-17T13:58:49.451Z,10.63
2022-10-17T14:01:16.374Z,10.17
2022-10-17T14:03:48.715Z,9.83
2022-10-17T14:06:16.345Z,10.67
2022-10-17T14:08:48.632Z,10.50
2022-10-17T14:11:18.668Z,10.17
2022-10-17T14:13:48.580Z,10.70
2022-10-17T14:16:15.106Z,10.17
2022-10-17T14:18:44.466Z,10.50
2022-10-17T14:24:14.625Z,11.40
2022-10-17T14:26:51.459Z,10.67
2022-10-17T14:29:22.788Z,11.53
2022-10-17T14:31:50.764Z,11.60
2022-10-17T14:34:21.287Z,11.70
2022-10-17T14:36:50.026Z,12.23
2022-10-17T14:39:20.887Z,12.37
2022-10-17T14:41:47.756Z,12.27
2022-10-17T14:44:20.343Z,12.37
2022-10-17T14:46:50.768Z,12.50
2022-10-17T14:49:24.248Z,13.23
2022-10-17T14:52:22.352Z,12.13
2022-10-17T14:54:49.578Z,12.23
2022-10-17T14:57:18.225Z,12.23
2022-10-17T14:59:59.924Z,13.60
2022-10-17T15:02:27.963Z,12.90
2022-10-17T15:04:54.816Z,12.97
2022-10-17T15:07:22.119Z,12.50
2022-10-17T15:09:49.507Z,12.97
2022-10-17T15:12:17.173Z,13.23
2022-10-17T15:14:43.795Z,12.83
2022-10-17T15:17:18.938Z,14.03
2022-10-17T15:19:45.346Z,12.90
2022-10-17T15:22:11.754Z,12.57
2022-10-17T15:24:38.363Z,11.93
2022-10-17T15:27:07.469Z,13.27
2022-10-17T15:29:33.976Z,12.67
2022-10-17T15:32:00.410Z,12.57
2022-10-17T15:34:26.857Z,13.87
2022-10-17T15:36:54.062Z,13.70
2022-10-17T15:39:20.894Z,13.07
2022-10-17T15:41:48.155Z,14.53
2022-10-17T15:44:15.140Z,14.13
2022-10-17T15:46:41.889Z,14.60
2022-10-17T15:49:11.417Z,15.20
2022-10-17T15:51:37.908Z,14.87
2022-10-17T15:54:05.725Z,14.90
2022-10-17T15:56:36.332Z,14.67
2022-10-17T15:59:03.911Z,14.97
2022-10-17T16:01:31.432Z,14.67
2022-10-17T16:03:57.878Z,14.00
2022-10-17T16:06:24.560Z,14.67
2022-10-17T16:08:51.176Z,14.77
2022-10-17T16:11:29.031Z,14.53
2022-10-17T16:13:57.104Z,14.90
2022-10-17T16:16:23.536Z,14.33
2022-10-17T16:18:49.947Z,14.00
2022-10-17T16:21:17.246Z,14.80
2022-10-17T16:23:43.926Z,14.87
2022-10-17T16:26:10.532Z,14.40
2022-10-17T16:28:37.204Z,14.20
2022-10-17T16:31:03.670Z,14.00
2022-10-17T16:33:31.381Z,15.47
2022-10-17T16:35:58.032Z,14.80
2022-10-17T16:38:24.438Z,14.93
2022-10-17T16:40:51.110Z,15.07
2022-10-17T16:43:17.550Z,14.73
2022-10-17T16:45:43.971Z,14.53
2022-10-17T16:48:10.681Z,14.67
2022-10-17T16:50:38.962Z,14.57
2022-10-17T16:53:05.367Z,14.23
2022-10-17T16:55:31.802Z,14.23
2022-10-17T16:57:59.902Z,14.40
2022-10-17T17:00:26.479Z,15.93
2022-10-17T17:02:52.946Z,16.07
2022-10-17T17:05:19.432Z,15.80
2022-10-17T17:07:47.737Z,14.43
2022-10-17T17:10:14.192Z,14.50
2022-10-17T17:12:40.624Z,14.53
2022-10-17T17:15:07.171Z,16.00
2022-10-17T17:17:49.742Z,16.47
2022-10-17T17:20:17.826Z,16.50
2022-10-17T17:22:44.283Z,17.30
2022-10-17T17:25:10.716Z,16.57
2022-10-17T17:27:37.144Z,16.10
2022-10-17T17:30:03.712Z,15.83
2022-10-17T17:32:32.049Z,16.50
2022-10-17T17:34:58.491Z,16.40
2022-10-17T17:37:25.019Z,16.50
2022-10-17T17:39:51.461Z,16.10
2022-10-17T17:42:18.826Z,19.93
2022-10-17T17:44:45.531Z,17.17
2022-10-17T17:47:11.924Z,17.03
2022-10-17T17:49:38.386Z,16.90
2022-10-17T17:52:04.837Z,15.63
2022-10-17T17:54:31.315Z,16.60
2022-10-17T17:56:57.737Z,17.00
2022-10-17T17:59:24.140Z,18.03
2022-10-17T18:01:50.931Z,18.73
2022-10-17T18:04:17.521Z,17.00
2022-10-17T18:06:44.031Z,16.80
2022-10-17T18:09:10.522Z,17.37
2022-10-17T18:11:37.395Z,18.50
2022-10-17T18:14:05.259Z,17.33
2022-10-17T18:16:32.786Z,17.70
2022-10-17T18:19:04.092Z,17.03
2022-10-17T18:21:33.091Z,18.17
2022-10-17T18:24:00.240Z,18.50
2022-10-17T18:26:28.471Z,18.43
2022-10-17T18:28:54.928Z,19.00
2022-10-17T18:31:25.131Z,18.17
2022-10-17T18:33:55.498Z,18.67
2022-10-17T18:36:22.665Z,18.57
2022-10-17T18:38:49.592Z,18.97
2022-10-17T18:41:17.190Z,18.63
2022-10-17T18:43:45.028Z,18.87
2022-10-17T18:46:19.184Z,19.00
2022-10-17T18:48:46.418Z,18.80
2022-10-17T18:51:14.403Z,18.27
2022-10-17T18:53:42.233Z,18.07
2022-10-17T18:56:09.245Z,18.27
2022-10-17T18:58:36.663Z,18.90
2022-10-17T19:01:04.080Z,19.37
2022-10-17T19:03:30.987Z,18.87
2022-10-17T19:06:01.152Z,23.03
2022-10-17T19:08:27.779Z,32.43
2022-10-17T19:10:54.168Z,26.80
2022-10-17T19:13:21.649Z,20.30
2022-10-17T19:15:48.416Z,19.90
2022-10-17T19:18:14.827Z,19.60
2022-10-17T19:20:41.568Z,19.40
2022-10-17T19:23:07.994Z,19.20
2022-10-17T19:25:34.468Z,19.80
2022-10-17T19:28:00.876Z,19.13
2022-10-17T19:30:27.289Z,19.73
2022-10-17T19:32:54.899Z,19.13
2022-10-17T19:35:21.431Z,20.30
2022-10-17T19:37:47.982Z,20.33
2022-10-17T19:40:14.581Z,19.97
2022-10-17T19:42:41.071Z,19.43
2022-10-17T19:45:08.333Z,19.20
2022-10-17T19:47:35.093Z,19.17
2022-10-17T19:50:01.576Z,18.67
2022-10-17T19:52:28.309Z,19.97
2022-10-17T19:54:55.052Z,19.93
2022-10-17T19:57:21.503Z,19.53
2022-10-17T19:59:49.385Z,20.37
2022-10-17T20:02:17.829Z,19.90
2022-10-17T20:04:54.441Z,22.97
2022-10-17T20:07:30.650Z,19.93
2022-10-17T20:09:57.099Z,19.87
2022-10-17T20:12:23.536Z,19.20
2022-10-17T20:14:49.962Z,18.40
2022-10-17T20:17:16.418Z,18.47
2022-10-17T20:19:42.907Z,18.50
2022-10-17T20:22:09.304Z,18.70
2022-10-17T20:24:35.763Z,19.07
2022-10-17T20:27:02.306Z,18.47
2022-10-17T20:29:28.849Z,19.93
2022-10-17T20:31:55.369Z,19.57
2022-10-17T20:34:21.863Z,19.27
2022-10-17T20:36:48.348Z,18.20
2022-10-17T20:39:15.604Z,20.13
2022-10-17T20:41:42.664Z,23.23
2022-10-17T20:44:09.806Z,84.63
2022-10-17T20:46:38.516Z,43.80
2022-10-17T20:49:13.061Z,41.40
2022-10-17T20:51:39.720Z,26.43
2022-10-17T20:54:06.129Z,28.27
2022-10-17T20:56:33.406Z,22.10
2022-10-17T20:59:00.939Z,45.00
2022-10-17T21:01:28.308Z,60.43
2022-10-17T21:03:55.131Z,52.50
2022-10-17T21:06:22.516Z,39.93
2022-10-17T21:08:49.378Z,52.47
2022-10-17T21:11:20.010Z,34.63
2022-10-17T21:13:47.208Z,26.73
2022-10-17T21:16:16.075Z,24.10
2022-10-17T21:18:42.683Z,24.97
2022-10-17T21:21:10.386Z,50.57
2022-10-17T21:23:37.107Z,36.10
2022-10-17T21:26:04.115Z,24.93
2022-10-17T21:28:31.185Z,25.53
2022-10-17T21:31:06.717Z,20.07
2022-10-17T21:33:33.241Z,20.87
2022-10-17T21:35:59.819Z,21.73
2022-10-17T21:38:26.344Z,23.60
2022-10-17T21:40:55.359Z,31.00
2022-10-17T21:43:22.835Z,24.20
2022-10-17T21:45:49.354Z,23.83
2022-10-17T21:48:15.915Z,22.93
2022-10-17T21:50:42.426Z,22.50
2022-10-17T21:53:08.964Z,21.20
2022-10-17T21:55:38.845Z,19.37
2022-10-17T21:58:05.310Z,19.70
2022-10-17T22:00:31.869Z,19.70
2022-10-17T22:02:58.376Z,19.20
2022-10-17T22:05:24.919Z,19.73
2022-10-17T22:07:51.372Z,17.60
2022-10-17T22:10:17.863Z,18.80
2022-10-17T22:12:44.419Z,19.37
2022-10-17T22:15:10.951Z,18.60
2022-10-17T22:17:37.541Z,18.40
2022-10-17T22:20:04.135Z,18.43
2022-10-17T22:22:30.600Z,17.63
2022-10-17T22:24:57.058Z,18.47
2022-10-17T22:27:23.474Z,18.30
2022-10-17T22:29:49.942Z,18.07
2022-10-17T22:32:20.062Z,17.03
2022-10-17T22:34:48.970Z,16.83
2022-10-17T22:37:15.462Z,17.73
2022-10-17T22:39:41.964Z,17.10
2022-10-17T22:42:08.831Z,16.67
2022-10-17T22:44:35.420Z,18.20
2022-10-17T22:47:02.323Z,18.20
2022-10-17T22:49:28.831Z,18.43
2022-10-17T22:51:55.687Z,18.40
2022-10-17T22:54:22.590Z,17.60
2022-10-17T22:56:49.013Z,18.13
2022-10-17T22:59:15.664Z,19.20
2022-10-17T23:01:42.130Z,18.53
2022-10-17T23:04:08.674Z,18.80
2022-10-17T23:06:35.530Z,18.27
2022-10-17T23:09:02.507Z,19.93
2022-10-17T23:11:28.973Z,18.07
2022-10-17T23:13:55.597Z,18.10
2022-10-17T23:16:22.066Z,19.23
2022-10-17T23:18:48.479Z,18.03
2022-10-17T23:21:15.130Z,18.13
2022-10-17T23:23:41.648Z,18.80
2022-10-17T23:26:10.332Z,18.77
2022-10-17T23:28:37.346Z,18.07
2022-10-17T23:31:14.921Z,18.87
2022-10-17T23:33:41.798Z,19.43
2022-10-17T23:36:09.562Z,18.77
2022-10-17T23:38:36.285Z,18.50
2022-10-17T23:41:02.741Z,17.77
2022-10-17T23:43:29.905Z,18.20
2022-10-17T23:45:56.332Z,18.70
2022-10-17T23:48:23.263Z,19.00
2022-10-17T23:50:49.718Z,17.90
2022-10-17T23:53:16.112Z,18.67
2022-10-17T23:55:42.841Z,18.93
2022-10-17T23:58:09.262Z,19.10
